CLO weather

Alfonso Bonilla Aragon International Airport
Cali, Valle del Cauca Department, Colombia

Public forecast

Using degrees Celsius for public forecast. Weather courtesy of forecast.io.

Current aviation weather report (METAR) for Alfonso Bonilla Aragon International Airport

Retrieved 2020/06/03 07:00 UTC (23 minutes ago):

SKCL 030700Z VRB02KT 9000 DZ SCT017 OVC100 20/19 A3005 BECMG FM0730 NSW

Aviation forecast (TAF) for Alfonso Bonilla Aragon International Airport

Retrieved 2020/06/03 06:30 UTC (53 minutes ago):

TAF SKCL 030430Z 0306/0406 VRB03KT 7000 VCFG SCT015 BKN100 BECMG 0316/0318 06008KT 9999 NSW SCT020 SCT120 TEMPO 0320/0323 7000 TSRA SCT017CB BKN080 TX30/0319Z TN20/0310Z